createdAt,value
2023-01-29T00:01:09.520Z,4.42
2023-01-29T00:03:35.909Z,4.43
2023-01-29T00:06:02.267Z,4.43
2023-01-29T00:08:28.619Z,4.43
2023-01-29T00:10:55.096Z,4.44
2023-01-29T00:13:21.495Z,4.43
2023-01-29T00:15:47.886Z,4.44
2023-01-29T00:18:14.377Z,4.42
2023-01-29T00:20:40.760Z,4.42
2023-01-29T00:23:07.139Z,4.43
2023-01-29T00:25:33.545Z,4.43
2023-01-29T00:27:59.957Z,4.43
2023-01-29T00:30:26.355Z,4.42
2023-01-29T00:32:52.752Z,4.40
2023-01-29T00:35:19.151Z,4.40
2023-01-29T00:37:45.738Z,4.43
2023-01-29T00:40:12.111Z,4.40
2023-01-29T00:42:38.492Z,4.42
2023-01-29T00:45:05.101Z,4.42
2023-01-29T00:47:31.462Z,4.43
2023-01-29T00:49:57.843Z,4.40
2023-01-29T00:52:24.255Z,4.42
2023-01-29T00:54:50.851Z,4.39
2023-01-29T00:57:17.256Z,4.40
2023-01-29T00:59:43.661Z,4.37
2023-01-29T01:02:10.085Z,4.42
2023-01-29T01:04:36.499Z,4.39
2023-01-29T01:07:02.872Z,4.40
2023-01-29T01:09:29.716Z,4.37
2023-01-29T01:11:56.079Z,4.40
2023-01-29T01:14:22.485Z,4.40
2023-01-29T01:16:48.855Z,4.40
2023-01-29T01:19:15.225Z,4.40
2023-01-29T01:21:41.603Z,4.40
2023-01-29T01:24:08.076Z,4.34
2023-01-29T01:26:34.476Z,4.37
2023-01-29T01:29:00.841Z,4.39
2023-01-29T01:31:27.470Z,4.39
2023-01-29T01:33:53.968Z,4.39
2023-01-29T01:36:20.338Z,4.39
2023-01-29T01:38:46.716Z,4.39
2023-01-29T01:41:13.116Z,4.40
2023-01-29T01:43:39.516Z,4.39
2023-01-29T01:46:06.156Z,4.39
2023-01-29T01:48:32.543Z,4.37
2023-01-29T01:50:58.934Z,4.37
2023-01-29T01:53:25.343Z,4.39
2023-01-29T01:55:51.765Z,4.36
2023-01-29T01:58:18.188Z,4.36
2023-01-29T02:00:44.795Z,4.36
2023-01-29T02:03:11.199Z,4.36
2023-01-29T02:05:37.627Z,4.37
2023-01-29T02:08:04.241Z,4.36
2023-01-29T02:10:30.638Z,4.37
2023-01-29T02:12:57.006Z,4.36
2023-01-29T02:15:23.397Z,4.37
2023-01-29T02:17:49.991Z,4.33
2023-01-29T02:20:16.620Z,4.36
2023-01-29T02:22:43.148Z,4.37
2023-01-29T02:25:09.884Z,4.37
2023-01-29T02:27:36.423Z,4.34
2023-01-29T02:30:02.827Z,4.36
2023-01-29T02:32:29.196Z,4.33
2023-01-29T02:34:55.586Z,4.36
2023-01-29T02:37:21.970Z,4.36
2023-01-29T02:39:48.314Z,4.36
2023-01-29T02:42:14.649Z,4.34
2023-01-29T02:44:40.972Z,4.36
2023-01-29T02:47:07.303Z,4.34
2023-01-29T02:49:33.646Z,4.34
2023-01-29T02:51:59.974Z,4.33
2023-01-29T02:54:26.313Z,4.34
2023-01-29T02:56:52.645Z,4.34
2023-01-29T02:59:18.975Z,4.36
2023-01-29T03:01:45.323Z,4.36
2023-01-29T03:04:11.667Z,4.34
2023-01-29T03:06:38.023Z,4.34
2023-01-29T03:09:04.377Z,4.33
2023-01-29T03:11:30.715Z,4.37
2023-01-29T03:13:57.065Z,4.34
2023-01-29T03:16:23.428Z,4.34
2023-01-29T03:18:49.782Z,4.34
2023-01-29T03:21:16.108Z,4.34
2023-01-29T03:23:42.454Z,4.33
2023-01-29T03:26:08.808Z,4.36
2023-01-29T03:28:35.105Z,4.36
2023-01-29T03:31:01.465Z,4.33
2023-01-29T03:33:27.801Z,4.30
2023-01-29T03:35:54.344Z,4.34
2023-01-29T03:38:20.686Z,4.33
2023-01-29T03:40:47.039Z,4.34
2023-01-29T03:43:13.387Z,4.33
2023-01-29T03:45:39.761Z,4.33
2023-01-29T03:48:06.329Z,4.32
2023-01-29T03:50:32.693Z,4.33
2023-01-29T03:52:59.024Z,4.33
2023-01-29T03:55:25.359Z,4.33
2023-01-29T03:57:51.707Z,4.30
2023-01-29T04:00:18.555Z,4.28
2023-01-29T04:02:45.124Z,4.32
2023-01-29T04:05:11.467Z,4.30
2023-01-29T04:07:38.007Z,4.32
2023-01-29T04:10:04.545Z,4.32
2023-01-29T04:12:30.901Z,4.29
2023-01-29T04:14:57.458Z,4.32
2023-01-29T04:17:23.801Z,4.33
2023-01-29T04:19:50.132Z,4.33
2023-01-29T04:22:16.469Z,4.32
2023-01-29T04:24:42.808Z,4.29
2023-01-29T04:27:09.130Z,4.32
2023-01-29T04:29:35.459Z,4.30
2023-01-29T04:32:01.797Z,4.33
2023-01-29T04:34:28.154Z,4.33
2023-01-29T04:36:54.488Z,4.32
2023-01-29T04:39:20.822Z,4.32
2023-01-29T04:41:47.493Z,4.30
2023-01-29T04:44:13.847Z,4.30
2023-01-29T04:46:40.192Z,4.32
2023-01-29T04:49:06.527Z,4.30
2023-01-29T04:51:32.859Z,4.30
2023-01-29T04:53:59.409Z,4.30
2023-01-29T04:56:25.961Z,4.32
2023-01-29T04:58:52.296Z,4.32
2023-01-29T05:01:18.648Z,4.30
2023-01-29T05:03:45.008Z,4.29
2023-01-29T05:06:11.344Z,4.28
2023-01-29T05:08:37.685Z,4.29
2023-01-29T05:11:04.015Z,4.28
2023-01-29T05:13:30.355Z,4.29
2023-01-29T05:15:56.934Z,4.29
2023-01-29T05:18:23.485Z,4.28
2023-01-29T05:20:49.823Z,4.29
2023-01-29T05:23:16.232Z,4.30
2023-01-29T05:25:42.572Z,4.29
2023-01-29T05:28:08.911Z,4.29
2023-01-29T05:30:35.494Z,4.29
2023-01-29T05:33:01.845Z,4.29
2023-01-29T05:35:28.397Z,4.26
2023-01-29T05:37:54.747Z,4.28
2023-01-29T05:40:21.395Z,4.28
2023-01-29T05:42:47.734Z,4.29
2023-01-29T05:45:14.057Z,4.26
2023-01-29T05:47:40.392Z,4.28
2023-01-29T05:50:06.729Z,4.28
2023-01-29T05:52:33.083Z,4.28
2023-01-29T05:54:59.681Z,4.28
2023-01-29T05:57:26.028Z,4.26
2023-01-29T05:59:52.369Z,4.26
2023-01-29T06:02:18.708Z,4.28
2023-01-29T06:04:45.051Z,4.26
2023-01-29T06:07:11.392Z,4.26
2023-01-29T06:09:37.724Z,4.26
2023-01-29T06:12:04.260Z,4.26
2023-01-29T06:14:30.593Z,4.28
2023-01-29T06:16:56.932Z,4.28
2023-01-29T06:19:23.481Z,4.26
2023-01-29T06:21:50.042Z,4.28
2023-01-29T06:24:16.399Z,4.28
2023-01-29T06:26:42.737Z,4.26
2023-01-29T06:29:09.269Z,4.26
2023-01-29T06:31:39.735Z,4.23
2023-01-29T06:34:06.315Z,4.23
2023-01-29T06:36:32.666Z,4.24
2023-01-29T06:38:59.047Z,4.24
2023-01-29T06:41:25.807Z,4.23
2023-01-29T06:43:52.178Z,4.26
2023-01-29T06:46:18.530Z,4.24
2023-01-29T06:48:44.861Z,4.24
2023-01-29T06:51:11.221Z,4.26
2023-01-29T06:53:37.607Z,4.23
2023-01-29T06:56:03.960Z,4.23
2023-01-29T06:58:30.500Z,4.26
2023-01-29T07:00:56.853Z,4.23
2023-01-29T07:03:23.208Z,4.23
2023-01-29T07:05:49.539Z,4.23
2023-01-29T07:08:15.856Z,4.23
2023-01-29T07:10:42.181Z,4.26
2023-01-29T07:13:08.510Z,4.24
2023-01-29T07:15:37.136Z,4.23
2023-01-29T07:18:03.801Z,4.23
2023-01-29T07:20:30.413Z,4.26
2023-01-29T07:22:56.780Z,4.26
2023-01-29T07:25:23.131Z,4.28
2023-01-29T07:27:49.473Z,4.30
2023-01-29T07:30:16.179Z,4.33
2023-01-29T07:32:42.696Z,4.32
2023-01-29T07:35:09.233Z,4.32
2023-01-29T07:37:35.578Z,4.34
2023-01-29T07:40:01.925Z,4.32
2023-01-29T07:42:28.480Z,4.30
2023-01-29T07:44:54.829Z,4.32
2023-01-29T07:47:21.177Z,4.33
2023-01-29T07:49:47.518Z,4.32
2023-01-29T07:52:14.080Z,4.30
2023-01-29T07:54:40.413Z,4.30
2023-01-29T07:57:06.963Z,4.26
2023-01-29T07:59:33.294Z,4.29
2023-01-29T08:01:59.685Z,4.29
2023-01-29T08:04:26.034Z,4.28
2023-01-29T08:06:52.372Z,4.29
2023-01-29T08:09:18.707Z,4.28
2023-01-29T08:11:45.255Z,4.28
2023-01-29T08:14:11.596Z,4.28
2023-01-29T08:16:37.957Z,4.28
2023-01-29T08:19:04.315Z,4.26
2023-01-29T08:21:30.875Z,4.32
2023-01-29T08:23:57.218Z,4.34
2023-01-29T08:26:23.567Z,4.43
2023-01-29T08:28:49.899Z,4.51
2023-01-29T08:31:16.238Z,4.63
2023-01-29T08:33:43.395Z,4.72
2023-01-29T08:36:09.737Z,4.75
2023-01-29T08:38:36.274Z,4.85
2023-01-29T08:41:02.599Z,4.89
2023-01-29T08:43:28.935Z,4.93
2023-01-29T08:45:55.335Z,4.98
2023-01-29T08:48:21.693Z,5.01
2023-01-29T08:50:48.019Z,4.98
2023-01-29T08:53:14.355Z,4.93
2023-01-29T08:55:40.691Z,4.92
2023-01-29T08:58:07.265Z,4.84
2023-01-29T09:00:33.600Z,4.82
2023-01-29T09:03:00.197Z,4.78
2023-01-29T09:05:26.571Z,4.74
2023-01-29T09:07:54.225Z,4.71
2023-01-29T09:10:20.644Z,4.68
2023-01-29T09:12:47.194Z,4.70
2023-01-29T09:15:13.513Z,4.68
2023-01-29T09:17:39.842Z,4.64
2023-01-29T09:20:06.389Z,4.64
2023-01-29T09:22:32.773Z,4.61
2023-01-29T09:24:59.159Z,4.64
2023-01-29T09:27:25.520Z,4.68
2023-01-29T09:29:52.155Z,4.75
2023-01-29T09:32:37.693Z,4.84
2023-01-29T09:35:05.104Z,4.93
2023-01-29T09:37:31.650Z,5.02
2023-01-29T09:39:57.970Z,5.05
2023-01-29T09:42:24.327Z,5.11
2023-01-29T09:44:50.706Z,5.09
2023-01-29T09:47:17.066Z,5.02
2023-01-29T09:49:43.402Z,4.99
2023-01-29T09:52:09.740Z,4.95
2023-01-29T09:54:36.195Z,4.93
2023-01-29T09:57:02.544Z,4.88
2023-01-29T09:59:29.343Z,4.87
2023-01-29T10:01:55.754Z,4.85
2023-01-29T10:04:22.214Z,4.84
2023-01-29T10:06:48.585Z,4.81
2023-01-29T10:09:15.129Z,4.77
2023-01-29T10:11:41.669Z,4.74
2023-01-29T10:14:08.037Z,4.71
2023-01-29T10:16:34.378Z,4.70
2023-01-29T10:19:00.736Z,4.65
2023-01-29T10:21:27.298Z,4.64
2023-01-29T10:23:53.638Z,4.64
2023-01-29T10:26:19.977Z,4.61
2023-01-29T10:28:46.400Z,4.57
2023-01-29T10:31:13.049Z,4.60
2023-01-29T10:33:49.256Z,4.57
2023-01-29T10:36:25.919Z,4.56
2023-01-29T10:38:52.265Z,4.56
2023-01-29T10:41:18.599Z,4.57
2023-01-29T10:43:44.932Z,4.54
2023-01-29T10:46:11.269Z,4.54
2023-01-29T10:48:37.871Z,4.51
2023-01-29T10:51:04.211Z,4.50
2023-01-29T10:53:30.810Z,4.51
2023-01-29T10:55:57.134Z,4.50
2023-01-29T10:58:23.743Z,4.47
2023-01-29T11:00:50.205Z,4.49
2023-01-29T11:03:26.805Z,4.50
2023-01-29T11:05:54.089Z,4.50
2023-01-29T11:08:20.674Z,4.47
2023-01-29T11:10:47.014Z,4.49
2023-01-29T11:13:13.624Z,4.47
2023-01-29T11:15:39.964Z,4.47
2023-01-29T11:18:06.297Z,4.44
2023-01-29T11:20:32.632Z,4.44
2023-01-29T11:22:58.967Z,4.43
2023-01-29T11:25:25.325Z,4.42
2023-01-29T11:27:51.656Z,4.43
2023-01-29T11:30:18.459Z,4.44
2023-01-29T11:32:44.959Z,4.44
2023-01-29T11:35:11.290Z,4.44
2023-01-29T11:37:37.652Z,4.42
2023-01-29T11:40:04.003Z,4.46
2023-01-29T11:42:30.336Z,4.39
2023-01-29T11:44:56.682Z,4.42
2023-01-29T11:47:23.017Z,4.39
2023-01-29T11:49:49.355Z,4.40
2023-01-29T11:52:15.688Z,4.40
2023-01-29T11:54:42.609Z,4.39
2023-01-29T11:57:08.938Z,4.40
2023-01-29T11:59:35.524Z,4.39
2023-01-29T12:02:01.844Z,4.40
2023-01-29T12:04:28.433Z,4.37
2023-01-29T12:06:54.769Z,4.39
2023-01-29T12:09:21.348Z,4.39
2023-01-29T12:11:47.683Z,4.40
2023-01-29T12:14:14.011Z,4.37
2023-01-29T12:16:40.334Z,4.37
2023-01-29T12:19:06.675Z,4.40
2023-01-29T12:21:33.019Z,4.42
2023-01-29T12:23:59.592Z,4.37
2023-01-29T12:26:25.957Z,4.39
2023-01-29T12:28:52.300Z,4.34
2023-01-29T12:31:18.623Z,4.37
2023-01-29T12:33:44.986Z,4.37
2023-01-29T12:36:11.318Z,4.40
2023-01-29T12:38:37.660Z,4.44
2023-01-29T12:41:04.015Z,4.54
2023-01-29T12:43:30.344Z,4.64
2023-01-29T12:45:56.665Z,4.72
2023-01-29T12:48:23.010Z,4.82
2023-01-29T12:50:49.346Z,4.91
2023-01-29T12:53:15.685Z,4.98
2023-01-29T12:55:42.019Z,5.04
2023-01-29T12:58:08.358Z,5.11
2023-01-29T13:00:34.766Z,5.13
2023-01-29T13:03:01.162Z,5.18
2023-01-29T13:05:27.787Z,5.20
2023-01-29T13:07:54.109Z,5.26
2023-01-29T13:10:20.697Z,5.30
2023-01-29T13:12:47.034Z,5.38
2023-01-29T13:15:13.643Z,5.39
2023-01-29T13:17:39.984Z,5.38
2023-01-29T13:20:06.573Z,5.36
2023-01-29T13:22:32.904Z,5.33
2023-01-29T13:25:05.124Z,5.30
2023-01-29T13:27:31.958Z,5.25
2023-01-29T13:29:58.554Z,5.23
2023-01-29T13:32:24.891Z,5.19
2023-01-29T13:34:51.215Z,5.15
2023-01-29T13:37:17.572Z,5.11
2023-01-29T13:39:43.898Z,5.08
2023-01-29T13:42:10.300Z,5.09
2023-01-29T13:44:36.643Z,5.08
2023-01-29T13:47:02.984Z,5.02
2023-01-29T13:49:29.310Z,5.01
2023-01-29T13:51:55.659Z,5.01
2023-01-29T13:54:22.002Z,4.96
2023-01-29T13:56:48.362Z,4.95
2023-01-29T13:59:14.708Z,4.92
2023-01-29T14:01:41.045Z,4.93
2023-01-29T14:04:07.389Z,4.89
2023-01-29T14:06:33.986Z,4.87
2023-01-29T14:09:00.332Z,4.85
2023-01-29T14:11:26.940Z,4.82
2023-01-29T14:13:53.261Z,4.84
2023-01-29T14:16:19.866Z,4.78
2023-01-29T14:18:46.198Z,4.77
2023-01-29T14:21:12.536Z,4.78
2023-01-29T14:23:38.882Z,4.75
2023-01-29T14:26:05.483Z,4.77
2023-01-29T14:28:31.834Z,4.77
2023-01-29T14:30:58.280Z,4.78
2023-01-29T14:33:24.678Z,4.74
2023-01-29T14:35:51.005Z,4.75
2023-01-29T14:38:17.331Z,4.74
2023-01-29T14:40:43.658Z,4.75
2023-01-29T14:43:10.004Z,4.74
2023-01-29T14:45:36.345Z,4.72
2023-01-29T14:48:02.691Z,4.72
2023-01-29T14:50:29.023Z,4.71
2023-01-29T14:52:55.353Z,4.70
2023-01-29T14:55:21.680Z,4.71
2023-01-29T14:57:48.265Z,4.70
2023-01-29T15:00:14.589Z,4.71
2023-01-29T15:02:41.244Z,4.70
2023-01-29T15:05:07.594Z,4.68
2023-01-29T15:07:33.941Z,4.67
2023-01-29T15:10:20.907Z,4.68
2023-01-29T15:12:46.602Z,4.64
2023-01-29T15:15:12.981Z,4.65
2023-01-29T15:17:39.367Z,4.65
2023-01-29T15:20:05.693Z,4.67
2023-01-29T15:22:31.978Z,4.65
2023-01-29T15:24:58.298Z,4.67
2023-01-29T15:27:24.891Z,4.65
2023-01-29T15:29:51.220Z,4.64
2023-01-29T15:32:17.807Z,4.63
2023-01-29T15:34:44.172Z,4.63
2023-01-29T15:37:10.761Z,4.63
2023-01-29T15:39:37.091Z,4.63
2023-01-29T15:42:03.679Z,4.65
2023-01-29T15:44:30.006Z,4.64
2023-01-29T15:46:56.595Z,4.64
2023-01-29T15:49:22.926Z,4.61
2023-01-29T15:51:49.512Z,4.61
2023-01-29T15:54:16.041Z,4.60
2023-01-29T15:56:42.650Z,4.61
2023-01-29T15:59:10.120Z,4.61
2023-01-29T16:01:36.780Z,4.60
2023-01-29T16:04:03.109Z,4.60
2023-01-29T16:06:29.713Z,4.61
2023-01-29T16:08:56.040Z,4.58
2023-01-29T16:11:22.384Z,4.58
2023-01-29T16:13:48.709Z,4.58
2023-01-29T16:16:15.189Z,4.58
2023-01-29T16:18:54.209Z,4.57
2023-01-29T16:21:25.473Z,4.58
2023-01-29T16:23:51.818Z,4.56
2023-01-29T16:26:18.178Z,4.54
2023-01-29T16:28:44.509Z,4.57
2023-01-29T16:31:10.950Z,4.58
2023-01-29T16:33:37.347Z,4.57
2023-01-29T16:36:03.683Z,4.58
2023-01-29T16:38:30.044Z,4.57
2023-01-29T16:40:56.384Z,4.54
2023-01-29T16:43:22.829Z,4.56
2023-01-29T16:45:51.816Z,4.54
2023-01-29T16:48:18.336Z,4.57
2023-01-29T16:50:54.614Z,4.54
2023-01-29T16:53:21.528Z,4.53
2023-01-29T16:55:47.869Z,4.53
2023-01-29T16:58:14.219Z,4.53
2023-01-29T17:00:40.591Z,4.50
2023-01-29T17:03:06.977Z,4.54
2023-01-29T17:05:33.327Z,4.54
2023-01-29T17:07:59.655Z,4.50
2023-01-29T17:10:25.992Z,4.53
2023-01-29T17:12:52.340Z,4.50
2023-01-29T17:15:19.054Z,4.53
2023-01-29T17:17:45.960Z,4.51
2023-01-29T17:20:12.309Z,4.54
2023-01-29T17:22:38.917Z,4.51
2023-01-29T17:25:05.254Z,4.51
2023-01-29T17:27:31.840Z,4.51
2023-01-29T17:29:58.171Z,4.50
2023-01-29T17:32:24.772Z,4.53
2023-01-29T17:35:11.090Z,4.53
2023-01-29T17:37:37.682Z,4.56
2023-01-29T17:40:05.412Z,4.57
2023-01-29T17:42:32.100Z,4.57
2023-01-29T17:44:58.438Z,4.57
2023-01-29T17:47:25.021Z,4.57
2023-01-29T17:49:51.352Z,4.53
2023-01-29T17:52:17.956Z,4.57
2023-01-29T17:54:44.300Z,4.51
2023-01-29T17:57:10.902Z,4.56
2023-01-29T17:59:37.208Z,4.53
2023-01-29T18:02:03.819Z,4.54
2023-01-29T18:04:30.206Z,4.53
2023-01-29T18:06:56.832Z,4.50
2023-01-29T18:09:23.179Z,4.56
2023-01-29T18:11:49.786Z,4.60
2023-01-29T18:14:16.117Z,4.67
2023-01-29T18:16:42.732Z,4.72
2023-01-29T18:19:09.081Z,4.74
2023-01-29T18:21:35.408Z,4.75
2023-01-29T18:24:01.751Z,4.72
2023-01-29T18:26:28.168Z,4.70
2023-01-29T18:28:54.585Z,4.70
2023-01-29T18:31:20.961Z,4.67
2023-01-29T18:33:47.287Z,4.67
2023-01-29T18:36:13.639Z,4.63
2023-01-29T18:38:39.998Z,4.61
2023-01-29T18:41:06.338Z,4.63
2023-01-29T18:43:32.670Z,4.60
2023-01-29T18:45:59.081Z,4.58
2023-01-29T18:48:25.489Z,4.58
2023-01-29T18:50:52.035Z,4.58
2023-01-29T18:53:18.365Z,4.54
2023-01-29T18:55:44.695Z,4.57
2023-01-29T18:58:33.483Z,4.54
2023-01-29T19:00:57.562Z,4.53
2023-01-29T19:03:24.130Z,4.51
2023-01-29T19:05:50.518Z,4.54
2023-01-29T19:08:16.898Z,4.53
2023-01-29T19:10:44.014Z,4.51
2023-01-29T19:13:10.353Z,4.49
2023-01-29T19:15:36.898Z,4.50
2023-01-29T19:18:03.440Z,4.50
2023-01-29T19:20:29.781Z,4.50
2023-01-29T19:22:56.112Z,4.49
2023-01-29T19:25:22.678Z,4.47
2023-01-29T19:27:49.004Z,4.46
2023-01-29T19:30:15.351Z,4.47
2023-01-29T19:32:41.907Z,4.46
2023-01-29T19:35:08.251Z,4.46
2023-01-29T19:37:34.830Z,4.43
2023-01-29T19:40:01.170Z,4.44
2023-01-29T19:42:27.715Z,4.46
2023-01-29T19:44:54.256Z,4.40
2023-01-29T19:47:20.674Z,4.46
2023-01-29T19:49:47.115Z,4.46
2023-01-29T19:52:13.458Z,4.50
2023-01-29T19:54:39.801Z,4.64
2023-01-29T19:57:06.143Z,4.74
2023-01-29T19:59:32.678Z,4.84
2023-01-29T20:01:59.055Z,4.89
2023-01-29T20:04:25.410Z,4.96
2023-01-29T20:06:51.729Z,5.01
2023-01-29T20:09:18.065Z,5.07
2023-01-29T20:11:44.609Z,5.11
2023-01-29T20:14:10.950Z,5.16
2023-01-29T20:16:37.362Z,5.19
2023-01-29T20:19:14.258Z,5.25
2023-01-29T20:21:41.329Z,5.28
2023-01-29T20:24:08.093Z,5.32
2023-01-29T20:26:34.483Z,5.36
2023-01-29T20:29:01.012Z,5.35
2023-01-29T20:31:27.363Z,5.38
2023-01-29T20:33:53.705Z,5.40
2023-01-29T20:36:20.053Z,5.44
2023-01-29T20:38:46.413Z,5.44
2023-01-29T20:41:12.758Z,5.49
2023-01-29T20:43:39.327Z,5.51
2023-01-29T20:46:05.734Z,5.54
2023-01-29T20:48:32.343Z,5.54
2023-01-29T20:50:58.665Z,5.56
2023-01-29T20:53:24.996Z,5.51
2023-01-29T20:55:51.485Z,5.44
2023-01-29T20:58:18.403Z,5.43
2023-01-29T21:00:44.754Z,5.36
2023-01-29T21:03:11.111Z,5.33
2023-01-29T21:05:37.460Z,5.26
2023-01-29T21:08:03.795Z,5.22
2023-01-29T21:10:30.345Z,5.19
2023-01-29T21:12:56.662Z,5.15
2023-01-29T21:15:22.991Z,5.13
2023-01-29T21:17:49.329Z,5.09
2023-01-29T21:20:16.091Z,5.05
2023-01-29T21:22:42.577Z,5.05
2023-01-29T21:25:09.105Z,4.98
2023-01-29T21:27:35.448Z,4.98
2023-01-29T21:30:02.013Z,4.95
2023-01-29T21:32:28.561Z,4.92
2023-01-29T21:34:54.922Z,4.91
2023-01-29T21:37:21.261Z,4.85
2023-01-29T21:39:47.589Z,4.85
2023-01-29T21:42:13.927Z,4.82
2023-01-29T21:44:40.260Z,4.78
2023-01-29T21:47:06.594Z,4.80
2023-01-29T21:49:32.914Z,4.77
2023-01-29T21:51:59.265Z,4.72
2023-01-29T21:54:25.600Z,4.71
2023-01-29T21:56:51.941Z,4.71
2023-01-29T21:59:18.275Z,4.70
2023-01-29T22:01:44.662Z,4.70
2023-01-29T22:04:11.040Z,4.65
2023-01-29T22:06:37.395Z,4.64
2023-01-29T22:09:03.955Z,4.64
2023-01-29T22:11:30.625Z,4.63
2023-01-29T22:13:57.163Z,4.60
2023-01-29T22:16:23.706Z,4.58
2023-01-29T22:18:50.039Z,4.58
2023-01-29T22:21:16.375Z,4.58
2023-01-29T22:23:42.934Z,4.57
2023-01-29T22:26:09.353Z,4.57
2023-01-29T22:28:35.988Z,4.54
2023-01-29T22:31:02.328Z,4.54
2023-01-29T22:33:28.687Z,4.51
2023-01-29T22:35:55.234Z,4.53
2023-01-29T22:38:21.566Z,4.51
2023-01-29T22:40:47.888Z,4.49
2023-01-29T22:43:14.232Z,4.51
2023-01-29T22:45:40.582Z,4.50
2023-01-29T22:48:08.199Z,4.47
2023-01-29T22:50:34.590Z,4.47
2023-01-29T22:53:00.930Z,4.46
2023-01-29T22:55:27.260Z,4.47
2023-01-29T22:57:53.591Z,4.44
2023-01-29T23:00:20.389Z,4.46
2023-01-29T23:02:47.086Z,4.42
2023-01-29T23:05:13.443Z,4.44
2023-01-29T23:07:39.783Z,4.44
2023-01-29T23:10:07.214Z,4.40
2023-01-29T23:12:33.628Z,4.40
2023-01-29T23:14:59.954Z,4.40
2023-01-29T23:17:26.284Z,4.40
2023-01-29T23:19:52.838Z,4.39
2023-01-29T23:22:19.176Z,4.37
2023-01-29T23:24:45.527Z,4.39
2023-01-29T23:27:11.860Z,4.37
2023-01-29T23:29:38.201Z,4.36
2023-01-29T23:32:04.558Z,4.33
2023-01-29T23:34:30.933Z,4.34
2023-01-29T23:36:57.316Z,4.34
2023-01-29T23:39:23.679Z,4.32
2023-01-29T23:41:50.005Z,4.32
2023-01-29T23:44:16.342Z,4.33
2023-01-29T23:46:42.730Z,4.32
2023-01-29T23:49:09.082Z,4.32
2023-01-29T23:51:35.887Z,4.33
2023-01-29T23:54:02.233Z,4.30
2023-01-29T23:56:28.539Z,4.30
2023-01-29T23:58:54.884Z,4.30
